Time;durP1;ratioP1;P1;durP2;ratioP2;P2;SDS_P1;SDS_P2;PMS_P1;PMS_P2;Temp;Humidity;BMP_temperature;BMP_pressure;BME280_temperature;BME280_humidity;BME280_pressure;Samples;Min_cycle;Max_cycle;Signal;HPM_P1;HPM_P2
2023/06/18 00:02:11;;;;;;;4.40;4.00;;;23.90;60.00;;;;;;7678553;22;80734;-54
2023/06/18 00:05:12;;;;;;;5.63;4.20;;;23.90;59.90;;;;;;7649169;22;80566;-62
2023/06/18 00:08:12;;;;;;;5.40;4.00;;;23.90;60.00;;;;;;7674919;22;80928;-64
2023/06/18 00:11:13;;;;;;;5.38;4.18;;;23.90;59.90;;;;;;7676544;22;81218;-64
2023/06/18 00:14:14;;;;;;;4.40;3.80;;;23.90;60.00;;;;;;7675793;22;81053;-64
2023/06/18 00:17:15;;;;;;;7.75;4.25;;;23.80;59.90;;;;;;7677166;22;80724;-63
2023/06/18 00:20:15;;;;;;;6.25;4.55;;;23.90;60.00;;;;;;7679602;22;80869;-64
2023/06/18 00:23:16;;;;;;;5.50;4.22;;;23.90;60.00;;;;;;7679176;22;80496;-63
2023/06/18 00:26:16;;;;;;;7.45;4.10;;;23.80;60.00;;;;;;7677883;22;80346;-63
2023/06/18 00:29:21;;;;;;;6.40;4.50;;;23.80;60.10;;;;;;7679751;22;80769;-62
2023/06/18 00:32:21;;;;;;;9.43;5.32;;;23.80;60.10;;;;;;7651925;22;80761;-63
2023/06/18 00:35:22;;;;;;;5.90;4.07;;;23.80;60.20;;;;;;7680297;22;80291;-63
2023/06/18 00:38:23;;;;;;;4.60;3.83;;;23.80;60.30;;;;;;7678030;22;80765;-64
2023/06/18 00:41:27;;;;;;;5.85;4.43;;;23.80;60.20;;;;;;7642416;22;83542;-64
2023/06/18 00:44:28;;;;;;;5.85;4.38;;;23.80;60.30;;;;;;7642647;22;81327;-64
2023/06/18 00:47:29;;;;;;;6.00;4.40;;;23.80;60.30;;;;;;7642122;22;81413;-64
2023/06/18 00:50:32;;;;;;;6.88;5.00;;;23.80;60.30;;;;;;7614663;22;81838;-63
2023/06/18 00:53:32;;;;;;;4.95;4.22;;;23.80;60.30;;;;;;7591027;22;83550;-64
2023/06/18 00:56:33;;;;;;;6.15;4.47;;;23.80;60.30;;;;;;7615810;22;83202;-64
2023/06/18 00:59:34;;;;;;;5.95;4.63;;;23.80;60.20;;;;;;7643278;22;80424;-64
2023/06/18 01:02:34;;;;;;;5.47;4.45;;;23.80;60.20;;;;;;7615110;22;81545;-63
2023/06/18 01:05:36;;;;;;;7.20;4.50;;;23.80;60.20;;;;;;7616603;22;81300;-62
2023/06/18 01:08:36;;;;;;;6.50;4.65;;;23.80;60.20;;;;;;7640958;22;80344;-62
2023/06/18 01:11:40;;;;;;;7.30;5.20;;;23.80;60.20;;;;;;7641672;22;80412;-63
2023/06/18 01:14:50;;;;;;;7.63;4.93;;;23.70;60.20;;;;;;7642127;22;80689;-63
2023/06/18 01:17:51;;;;;;;6.80;5.00;;;23.80;60.20;;;;;;7641368;22;80136;-63
2023/06/18 01:20:51;;;;;;;5.82;4.53;;;23.80;60.30;;;;;;7614751;22;80527;-64
2023/06/18 01:23:52;;;;;;;5.75;4.20;;;23.80;60.40;;;;;;7614807;22;81867;-64
2023/06/18 01:26:54;;;;;;;5.90;4.25;;;23.80;60.40;;;;;;7615594;22;83527;-65
2023/06/18 01:29:55;;;;;;;5.05;4.30;;;23.80;60.40;;;;;;7615536;22;81381;-65
2023/06/18 01:32:55;;;;;;;4.97;4.47;;;23.80;60.40;;;;;;7641332;22;80349;-65
2023/06/18 01:35:56;;;;;;;6.78;4.97;;;23.80;60.50;;;;;;7615575;22;83497;-65
2023/06/18 01:38:57;;;;;;;7.55;5.03;;;23.80;60.60;;;;;;7628033;22;83460;-63
2023/06/18 01:41:58;;;;;;;6.65;5.47;;;23.80;60.50;;;;;;7655057;22;80355;-63
2023/06/18 01:44:58;;;;;;;6.30;4.30;;;23.80;60.60;;;;;;7642337;22;81595;-62
2023/06/18 01:47:59;;;;;;;6.85;5.03;;;23.80;60.50;;;;;;7641921;22;80440;-63
2023/06/18 01:50:59;;;;;;;6.57;4.75;;;23.80;60.50;;;;;;7642373;22;80324;-64
2023/06/18 01:54:01;;;;;;;7.78;4.97;;;23.80;60.40;;;;;;7614988;22;83233;-63
2023/06/18 01:57:02;;;;;;;9.88;5.80;;;23.80;60.50;;;;;;7641426;22;81334;-63
2023/06/18 02:00:04;;;;;;;7.03;5.05;;;23.70;60.50;;;;;;7641435;22;80147;-64
2023/06/18 02:03:13;;;;;;;6.65;4.82;;;23.80;60.50;;;;;;7641032;22;84965;-64
2023/06/18 02:06:14;;;;;;;5.57;4.20;;;23.70;60.40;;;;;;7641376;22;80390;-63
2023/06/18 02:09:16;;;;;;;6.95;4.38;;;23.70;60.40;;;;;;7640811;22;80677;-64
2023/06/18 02:12:16;;;;;;;8.30;4.90;;;23.70;60.40;;;;;;7614818;22;80287;-57
2023/06/18 02:15:17;;;;;;;6.97;4.82;;;23.70;60.40;;;;;;7636226;22;81274;-58
2023/06/18 02:18:18;;;;;;;7.85;5.72;;;23.70;60.50;;;;;;7612780;22;83685;-53
2023/06/18 02:21:19;;;;;;;8.65;5.10;;;23.70;60.40;;;;;;7614641;22;83291;-52
2023/06/18 02:24:20;;;;;;;5.45;4.70;;;23.80;60.50;;;;;;7613523;22;83616;-57
2023/06/18 02:27:22;;;;;;;5.28;4.57;;;23.70;60.50;;;;;;7640883;22;81353;-57
2023/06/18 02:30:23;;;;;;;8.30;5.25;;;23.70;60.30;;;;;;7638432;22;81360;-58
2023/06/18 02:33:23;;;;;;;6.68;4.72;;;23.70;60.30;;;;;;7640683;22;80949;-57
2023/06/18 02:36:24;;;;;;;5.65;4.20;;;23.70;60.40;;;;;;7640497;22;80274;-56
2023/06/18 02:39:24;;;;;;;6.43;4.50;;;23.70;60.40;;;;;;7642437;22;80541;-54
2023/06/18 06:13:45;;;;;;;8.73;5.03;;;24.00;64.30;;;;;;7673583;22;81287;-67
2023/06/18 06:16:45;;;;;;;10.80;5.00;;;24.00;64.10;;;;;;7679766;22;80364;-68
2023/06/18 06:19:46;;;;;;;14.43;6.10;;;24.00;64.30;;;;;;7652007;22;81405;-67
2023/06/18 06:22:48;;;;;;;8.98;5.47;;;24.00;64.20;;;;;;7678928;22;80853;-66
2023/06/18 06:25:49;;;;;;;12.52;5.93;;;24.00;63.80;;;;;;7651818;22;81595;-66
2023/06/18 06:28:51;;;;;;;10.45;5.85;;;24.00;63.20;;;;;;7650990;22;83379;-66
2023/06/18 06:31:51;;;;;;;8.05;5.45;;;24.00;62.40;;;;;;7650738;22;83092;-68
2023/06/18 06:34:52;;;;;;;11.10;6.10;;;24.10;63.00;;;;;;7677711;22;80269;-68
2023/06/18 06:37:52;;;;;;;10.60;5.75;;;24.10;62.20;;;;;;7651537;22;81893;-66
2023/06/18 06:40:53;;;;;;;7.28;5.63;;;24.10;62.50;;;;;;7651188;22;82372;-67
2023/06/18 06:43:54;;;;;;;8.98;5.93;;;24.10;62.20;;;;;;7651051;22;83155;-70
2023/06/18 06:47:09;;;;;;;14.73;5.68;;;24.10;62.60;;;;;;7677990;22;80397;-60
2023/06/18 06:50:41;;;;;;;11.30;6.35;;;24.10;62.50;;;;;;7679004;22;80660;-59
2023/06/18 06:53:49;;;;;;;10.38;5.70;;;24.20;62.60;;;;;;7652304;22;83258;-60
2023/06/18 06:56:50;;;;;;;13.63;6.18;;;24.20;61.80;;;;;;7650940;22;82765;-59
2023/06/18 06:59:50;;;;;;;12.40;5.95;;;24.20;61.90;;;;;;7627028;22;82527;-59
2023/06/18 07:02:51;;;;;;;10.07;6.10;;;24.20;61.60;;;;;;7650066;22;80726;-58
2023/06/18 07:05:51;;;;;;;9.85;6.32;;;24.20;61.20;;;;;;7650819;22;82639;-57
2023/06/18 07:08:53;;;;;;;10.50;6.25;;;24.20;60.80;;;;;;7651958;22;80803;-59
2023/06/18 07:11:53;;;;;;;8.38;6.43;;;24.20;60.60;;;;;;7678445;22;80695;-60
2023/06/18 07:14:54;;;;;;;12.55;5.95;;;24.20;60.60;;;;;;7621330;22;81487;-59
2023/06/18 07:17:54;;;;;;;11.45;5.97;;;24.20;60.40;;;;;;7641797;22;80321;-60
2023/06/18 07:20:55;;;;;;;7.78;6.35;;;24.30;60.30;;;;;;7641004;22;80429;-59
2023/06/18 07:23:55;;;;;;;9.02;6.20;;;24.30;60.10;;;;;;7640836;22;82245;-58
2023/06/18 07:26:56;;;;;;;11.57;5.97;;;24.30;59.60;;;;;;7641223;22;80243;-59
2023/06/18 07:29:57;;;;;;;15.93;6.60;;;24.30;59.10;;;;;;7641065;22;80325;-59
2023/06/18 07:32:57;;;;;;;10.07;6.22;;;24.30;59.40;;;;;;7641033;22;80668;-59
2023/06/18 07:35:58;;;;;;;13.75;6.00;;;24.30;59.60;;;;;;7640456;22;81066;-60
2023/06/18 07:38:58;;;;;;;6.63;5.53;;;24.30;59.40;;;;;;7616134;22;80884;-59
2023/06/18 07:41:59;;;;;;;9.70;6.28;;;24.30;60.10;;;;;;7641817;22;81077;-59
2023/06/18 07:44:59;;;;;;;7.50;5.40;;;24.30;60.10;;;;;;7642282;22;80229;-59
2023/06/18 07:48:00;;;;;;;9.88;5.97;;;24.40;60.00;;;;;;7640720;22;80874;-60
2023/06/18 07:51:01;;;;;;;11.02;6.20;;;24.40;60.00;;;;;;7642144;22;80669;-60
2023/06/18 07:54:01;;;;;;;10.50;5.60;;;24.40;60.20;;;;;;7640373;22;80309;-60
2023/06/18 07:57:02;;;;;;;8.38;5.15;;;24.40;60.20;;;;;;7640974;22;81419;-59
2023/06/18 08:00:02;;;;;;;9.60;6.07;;;24.40;60.10;;;;;;7641034;22;80833;-58
2023/06/18 08:03:12;;;;;;;9.15;6.43;;;24.40;60.10;;;;;;7646049;22;80679;-70
2023/06/18 08:06:13;;;;;;;17.20;6.15;;;24.40;59.40;;;;;;7645123;22;80356;-73
2023/06/18 08:09:13;;;;;;;14.30;6.93;;;24.40;59.10;;;;;;7641689;22;84624;-71
2023/06/18 08:12:14;;;;;;;13.65;7.32;;;24.40;57.90;;;;;;7614696;22;80543;-70
2023/06/18 08:15:15;;;;;;;12.73;7.25;;;24.40;57.40;;;;;;7641470;22;80441;-70
2023/06/18 08:18:15;;;;;;;10.77;6.22;;;24.30;57.40;;;;;;7640464;22;80827;-72
2023/06/18 08:21:16;;;;;;;10.15;5.97;;;24.40;58.20;;;;;;7640193;22;80960;-70
2023/06/18 08:24:16;;;;;;;10.68;6.57;;;24.40;58.30;;;;;;7639696;22;80649;-71
2023/06/18 08:27:17;;;;;;;11.98;5.85;;;24.40;57.90;;;;;;7639138;22;80228;-70
2023/06/18 08:30:17;;;;;;;7.20;5.35;;;24.50;57.90;;;;;;7638980;22;80437;-73
2023/06/18 08:33:18;;;;;;;9.50;6.38;;;24.60;58.30;;;;;;7639839;22;80295;-72
2023/06/18 08:36:19;;;;;;;13.80;5.75;;;24.60;58.80;;;;;;7633745;22;80469;-69
2023/06/18 08:39:20;;;;;;;10.40;6.28;;;24.60;59.10;;;;;;7643688;22;81178;-68
2023/06/18 08:42:22;;;;;;;10.50;7.18;;;24.60;58.30;;;;;;7641136;22;80502;-71
2023/06/18 08:45:22;;;;;;;8.13;6.95;;;24.60;57.50;;;;;;7641022;22;80767;-68
2023/06/18 08:48:23;;;;;;;10.93;6.40;;;24.60;57.30;;;;;;7637705;22;81776;-68
2023/06/18 08:51:23;;;;;;;10.75;6.82;;;24.60;57.10;;;;;;7642024;22;80537;-71
2023/06/18 08:54:24;;;;;;;8.00;6.22;;;24.70;57.10;;;;;;7642599;22;81419;-67
2023/06/18 08:57:24;;;;;;;8.40;6.10;;;24.60;56.40;;;;;;7640047;22;80426;-68
2023/06/18 09:00:25;;;;;;;8.02;5.90;;;24.70;56.70;;;;;;7616206;22;81396;-65
2023/06/18 09:03:26;;;;;;;6.45;5.78;;;24.60;56.20;;;;;;7637306;22;80893;-63
2023/06/18 09:06:26;;;;;;;9.80;6.95;;;24.70;56.50;;;;;;7642967;22;80465;-63
2023/06/18 09:09:29;;;;;;;8.60;5.75;;;24.70;56.70;;;;;;7643800;22;81244;-65
2023/06/18 10:39:30;;;;;;;8.55;5.90;;;25.00;55.70;;;;;;7641167;22;81495;-61
2023/06/18 10:42:30;;;;;;;9.07;5.60;;;25.00;55.70;;;;;;7641495;22;80257;-62
2023/06/18 10:45:31;;;;;;;9.57;5.63;;;25.00;55.70;;;;;;7640449;22;80298;-62
2023/06/18 10:48:32;;;;;;;10.00;6.22;;;25.10;55.20;;;;;;7641345;22;80348;-62
2023/06/18 10:51:32;;;;;;;13.82;9.77;;;25.10;55.20;;;;;;7641604;22;80134;-62
2023/06/18 10:54:34;;;;;;;15.45;10.65;;;25.10;55.00;;;;;;7641676;22;80637;-65
2023/06/18 10:57:35;;;;;;;14.25;9.43;;;25.10;54.90;;;;;;7636908;22;83004;-62
2023/06/18 11:00:35;;;;;;;16.20;9.38;;;25.10;55.30;;;;;;7641913;22;82751;-62
2023/06/18 11:03:36;;;;;;;14.45;9.57;;;25.10;55.70;;;;;;7640273;22;80303;-65
2023/06/18 11:06:36;;;;;;;10.65;7.18;;;25.10;55.50;;;;;;7639973;22;80232;-61
2023/06/18 11:09:37;;;;;;;15.13;7.20;;;25.20;55.40;;;;;;7639078;22;80336;-62
2023/06/18 11:12:37;;;;;;;11.23;6.80;;;25.10;55.80;;;;;;7641461;22;80541;-63
2023/06/18 11:15:38;;;;;;;9.55;6.63;;;25.20;56.20;;;;;;7641851;22;80925;-60
2023/06/18 11:18:38;;;;;;;8.60;6.18;;;25.20;55.70;;;;;;7640836;22;80543;-63
2023/06/18 11:21:42;;;;;;;7.72;6.13;;;25.20;55.80;;;;;;7641511;22;81025;-62
2023/06/18 11:24:42;;;;;;;9.73;5.82;;;25.20;55.70;;;;;;7615009;22;81820;-61
2023/06/18 11:27:43;;;;;;;7.03;5.22;;;25.20;56.00;;;;;;7641637;22;80502;-64
2023/06/18 11:30:44;;;;;;;9.68;4.93;;;25.30;55.30;;;;;;7641023;22;81780;-63
2023/06/18 11:33:46;;;;;;;7.97;4.80;;;25.30;54.60;;;;;;7614994;22;83026;-64
2023/06/18 11:36:48;;;;;;;6.05;4.40;;;25.30;54.80;;;;;;7644018;22;80776;-65
2023/06/18 11:39:48;;;;;;;12.75;4.90;;;25.20;54.90;;;;;;7678875;22;80683;-66
2023/06/18 11:42:49;;;;;;;8.10;5.15;;;25.20;54.90;;;;;;7679573;22;81474;-57
2023/06/18 11:45:49;;;;;;;10.18;5.10;;;25.20;54.60;;;;;;7676396;22;80778;-58
2023/06/18 11:48:52;;;;;;;12.30;5.60;;;25.20;54.80;;;;;;7677081;22;80702;-58
2023/06/18 11:51:52;;;;;;;7.07;4.85;;;25.20;54.50;;;;;;7650922;22;83258;-59
2023/06/18 11:54:53;;;;;;;7.03;5.25;;;25.20;54.50;;;;;;7678579;22;80331;-58
2023/06/18 11:57:59;;;;;;;9.43;5.75;;;25.20;54.50;;;;;;7676261;22;81554;-58
2023/06/18 12:01:00;;;;;;;10.45;5.68;;;25.20;54.10;;;;;;7680486;22;80788;-69
2023/06/18 12:04:00;;;;;;;10.27;5.45;;;25.20;54.20;;;;;;7678926;22;80466;-67
2023/06/18 12:07:01;;;;;;;10.00;6.07;;;25.20;54.20;;;;;;7672542;22;81061;-68
2023/06/18 12:10:02;;;;;;;8.55;6.20;;;25.20;53.60;;;;;;7674590;22;80993;-68
2023/06/18 12:13:02;;;;;;;8.93;6.50;;;25.20;54.20;;;;;;7675638;22;80577;-68
2023/06/18 12:16:03;;;;;;;6.82;5.13;;;25.20;53.60;;;;;;7675823;22;80861;-68
2023/06/18 12:19:08;;;;;;;10.18;5.25;;;25.20;53.40;;;;;;7677415;22;80463;-69
2023/06/18 12:22:08;;;;;;;7.55;5.22;;;25.20;53.20;;;;;;7677959;22;80265;-69
2023/06/18 12:25:09;;;;;;;8.02;5.45;;;25.20;53.20;;;;;;7679201;22;80732;-68
2023/06/18 12:28:10;;;;;;;7.65;5.28;;;25.20;52.90;;;;;;7680109;22;81288;-71
2023/06/18 12:31:11;;;;;;;6.90;4.57;;;25.20;52.40;;;;;;7678656;22;80528;-63
2023/06/18 12:34:11;;;;;;;4.35;3.63;;;25.20;51.50;;;;;;7680963;22;80896;-65
2023/06/18 12:37:12;;;;;;;5.45;4.20;;;25.30;50.20;;;;;;7678608;22;80721;-63
2023/06/18 12:40:18;;;;;;;8.05;4.22;;;25.20;51.20;;;;;;7670596;22;81787;-63
2023/06/18 12:43:19;;;;;;;5.20;4.07;;;25.20;51.10;;;;;;7675542;22;80874;-62
2023/06/18 12:46:20;;;;;;;4.05;3.30;;;25.30;49.90;;;;;;7678877;22;80238;-62
2023/06/18 12:49:20;;;;;;;3.33;3.03;;;25.20;49.60;;;;;;7677689;22;80333;-62
2023/06/18 12:52:22;;;;;;;5.88;3.17;;;25.30;48.20;;;;;;7678061;22;80706;-63
2023/06/18 12:55:22;;;;;;;5.80;3.83;;;25.40;47.90;;;;;;7674931;22;80793;-62
2023/06/18 12:58:23;;;;;;;4.20;3.15;;;25.40;48.50;;;;;;7654438;22;82952;-64
2023/06/18 13:01:24;;;;;;;5.25;3.35;;;25.40;48.70;;;;;;7682605;22;81124;-65
2023/06/18 13:04:25;;;;;;;4.95;3.80;;;25.40;49.00;;;;;;7682000;22;82113;-65
2023/06/18 13:07:26;;;;;;;4.55;3.83;;;25.40;49.00;;;;;;7681801;22;80198;-65
2023/06/18 13:10:26;;;;;;;5.63;4.20;;;25.40;49.30;;;;;;7677281;22;80001;-64
2023/06/18 13:13:27;;;;;;;4.97;3.90;;;25.40;49.70;;;;;;7681305;22;80842;-65
2023/06/18 13:16:28;;;;;;;8.23;4.78;;;25.50;50.00;;;;;;7654526;22;80370;-65
2023/06/18 13:19:30;;;;;;;5.25;4.30;;;25.40;49.70;;;;;;7681680;22;80397;-64
2023/06/18 13:22:30;;;;;;;5.90;4.82;;;25.40;49.80;;;;;;7682390;22;81649;-67
2023/06/18 13:25:31;;;;;;;5.97;4.55;;;25.40;49.90;;;;;;7677522;22;80288;-68
2023/06/18 13:28:32;;;;;;;4.75;3.92;;;25.40;50.10;;;;;;7682028;22;80235;-65
2023/06/18 13:31:32;;;;;;;5.90;4.03;;;25.40;49.40;;;;;;7681053;22;80438;-66
2023/06/18 13:34:33;;;;;;;6.53;4.32;;;25.40;49.20;;;;;;7677614;22;80161;-69
2023/06/18 14:07:40;;;;;;;5.22;4.63;;;25.10;50.70;;;;;;7677845;22;79967;-63
2023/06/18 14:10:41;;;;;;;10.07;5.00;;;25.10;50.70;;;;;;7653904;22;80973;-64
2023/06/18 14:13:41;;;;;;;5.45;4.40;;;25.10;50.50;;;;;;7626654;22;81236;-66
2023/06/18 14:16:42;;;;;;;7.15;4.95;;;25.10;50.80;;;;;;7676385;22;80727;-63
2023/06/18 14:19:42;;;;;;;7.47;4.35;;;25.10;51.10;;;;;;7652379;22;80855;-64
2023/06/18 14:22:43;;;;;;;9.77;5.13;;;25.20;51.20;;;;;;7677569;22;80685;-63
2023/06/18 14:25:45;;;;;;;5.18;4.65;;;25.20;51.20;;;;;;7679497;22;80417;-68
2023/06/18 14:28:46;;;;;;;7.22;5.35;;;25.20;51.20;;;;;;7679665;22;79877;-61
2023/06/18 14:31:46;;;;;;;6.85;5.10;;;25.20;51.30;;;;;;7677189;22;80466;-62
2023/06/18 14:34:47;;;;;;;6.50;5.35;;;25.20;51.30;;;;;;7680847;22;80177;-65
2023/06/18 14:37:48;;;;;;;8.23;4.85;;;25.20;51.60;;;;;;7681377;22;80215;-65
2023/06/18 14:40:48;;;;;;;22.02;5.85;;;25.20;51.70;;;;;;7654794;22;80104;-65
2023/06/18 14:43:49;;;;;;;6.72;5.35;;;25.30;51.80;;;;;;7679652;22;81111;-69
2023/06/18 14:46:49;;;;;;;14.32;5.70;;;25.30;52.00;;;;;;7681595;22;79948;-67
2023/06/18 14:49:54;;;;;;;7.50;5.30;;;25.30;52.20;;;;;;7679558;22;80408;-65
2023/06/18 14:52:55;;;;;;;9.00;5.73;;;25.20;52.30;;;;;;7681190;22;80169;-64
2023/06/18 14:55:56;;;;;;;7.57;5.68;;;25.20;52.30;;;;;;7653932;22;81595;-64
2023/06/18 14:58:56;;;;;;;7.13;5.60;;;25.10;51.80;;;;;;7679879;22;80178;-64
2023/06/18 15:01:57;;;;;;;8.50;5.18;;;25.10;52.20;;;;;;7678976;22;80887;-66
2023/06/18 15:04:57;;;;;;;8.98;5.53;;;25.10;52.20;;;;;;7651200;22;80536;-58
2023/06/18 15:07:58;;;;;;;6.45;5.20;;;25.00;51.60;;;;;;7677560;22;80341;-59
2023/06/18 15:10:58;;;;;;;7.40;5.45;;;25.00;51.60;;;;;;7679136;22;80357;-59
2023/06/18 15:13:59;;;;;;;5.97;4.88;;;25.00;51.90;;;;;;7677987;22;80299;-59
2023/06/18 15:16:59;;;;;;;9.60;5.43;;;25.00;51.10;;;;;;7678599;22;80049;-61
2023/06/18 15:20:00;;;;;;;9.13;5.32;;;25.00;51.70;;;;;;7677142;22;80108;-61
2023/06/18 15:23:01;;;;;;;6.80;4.80;;;25.00;51.90;;;;;;7669198;22;81632;-62
2023/06/18 15:26:01;;;;;;;10.10;5.15;;;25.00;51.70;;;;;;7665487;22;81030;-60
2023/06/18 15:29:02;;;;;;;6.65;4.80;;;25.00;51.90;;;;;;7677487;22;80823;-61
2023/06/18 15:32:02;;;;;;;7.20;5.40;;;25.00;52.40;;;;;;7671921;22;80788;-67
2023/06/18 15:35:03;;;;;;;5.82;5.22;;;25.00;52.70;;;;;;7667555;22;80857;-61
2023/06/18 15:38:03;;;;;;;8.70;5.47;;;25.00;52.30;;;;;;7671402;22;80475;-62
2023/06/18 15:41:04;;;;;;;7.95;5.88;;;25.00;51.80;;;;;;7678078;22;81016;-62
2023/06/18 15:44:05;;;;;;;10.88;5.85;;;25.00;51.80;;;;;;7677319;22;80333;-60
2023/06/18 15:47:05;;;;;;;6.45;4.80;;;24.90;52.00;;;;;;7671493;22;81391;-64
2023/06/18 15:50:06;;;;;;;6.00;4.60;;;24.90;51.80;;;;;;7646941;22;80894;-65
2023/06/18 15:53:06;;;;;;;5.70;4.28;;;24.90;51.60;;;;;;7649011;22;83302;-66
2023/06/18 15:56:07;;;;;;;4.68;4.28;;;24.90;52.00;;;;;;7675240;22;80402;-64
2023/06/18 15:59:07;;;;;;;9.75;7.40;;;24.90;51.50;;;;;;7678102;22;80421;-67
2023/06/18 16:02:09;;;;;;;13.98;10.07;;;24.90;51.60;;;;;;7679021;22;87199;-62
2023/06/18 16:05:09;;;;;;;13.95;9.57;;;24.80;52.80;;;;;;7676256;22;82613;-64
2023/06/18 16:08:10;;;;;;;14.95;8.45;;;24.80;53.00;;;;;;7679992;22;82900;-62
2023/06/18 16:11:11;;;;;;;11.80;9.07;;;24.80;52.70;;;;;;7679634;22;80564;-63
2023/06/18 16:14:11;;;;;;;11.77;8.95;;;24.80;52.90;;;;;;7680290;22;80620;-64
2023/06/18 16:17:12;;;;;;;12.20;9.20;;;24.80;53.00;;;;;;7680564;22;80707;-65
2023/06/18 16:20:12;;;;;;;14.90;12.32;;;24.90;53.10;;;;;;7680137;22;81918;-64
2023/06/18 16:23:13;;;;;;;18.67;10.80;;;24.90;52.80;;;;;;7673513;22;83221;-60
2023/06/18 16:26:13;;;;;;;13.50;10.48;;;24.90;52.60;;;;;;7675175;22;82807;-66
2023/06/18 16:29:14;;;;;;;12.00;8.80;;;24.90;52.60;;;;;;7622563;22;84886;-64
2023/06/18 16:32:14;;;;;;;8.95;6.25;;;24.90;52.60;;;;;;7678919;22;81594;-63
2023/06/18 16:35:16;;;;;;;11.05;6.18;;;25.00;51.90;;;;;;7676448;22;80441;-64
2023/06/18 16:38:16;;;;;;;8.82;5.25;;;24.90;51.90;;;;;;7678590;22;80579;-62
2023/06/18 16:41:17;;;;;;;6.40;4.63;;;24.90;51.60;;;;;;7677230;22;80395;-60
2023/06/18 16:44:17;;;;;;;6.43;5.00;;;24.90;51.80;;;;;;7677435;22;80585;-64
2023/06/18 16:47:18;;;;;;;9.02;5.18;;;24.90;51.90;;;;;;7677632;22;80397;-60
2023/06/18 16:50:18;;;;;;;8.40;4.72;;;24.90;51.80;;;;;;7677098;22;80603;-64
2023/06/18 16:53:19;;;;;;;18.05;5.20;;;24.90;51.80;;;;;;7679960;22;80898;-59
2023/06/18 16:56:20;;;;;;;7.03;4.82;;;24.90;51.70;;;;;;7678560;22;80493;-59
2023/06/18 16:59:20;;;;;;;7.47;4.55;;;24.80;51.80;;;;;;7679234;22;80305;-62
2023/06/18 17:02:21;;;;;;;5.32;4.47;;;24.90;51.90;;;;;;7654994;22;80730;-66
2023/06/18 17:05:23;;;;;;;6.13;5.00;;;24.80;51.30;;;;;;7663193;22;80705;-64
2023/06/18 17:08:23;;;;;;;7.05;5.00;;;24.80;51.60;;;;;;7634129;22;81006;-66
2023/06/18 17:11:24;;;;;;;6.32;4.90;;;24.80;51.20;;;;;;7659284;22;80758;-62
2023/06/18 17:14:24;;;;;;;6.50;4.13;;;24.70;50.90;;;;;;7654256;22;80734;-61
2023/06/18 17:17:26;;;;;;;9.02;4.68;;;24.70;50.80;;;;;;7660481;22;80699;-60
2023/06/18 17:20:27;;;;;;;5.22;4.40;;;24.70;51.20;;;;;;7650341;22;81375;-60
2023/06/18 17:23:27;;;;;;;5.25;4.75;;;24.70;50.60;;;;;;7660435;22;81088;-59
2023/06/18 17:26:28;;;;;;;5.57;4.45;;;24.70;50.50;;;;;;7663624;22;80646;-62
2023/06/18 17:29:28;;;;;;;4.70;4.18;;;24.70;50.00;;;;;;7660490;22;81889;-59
2023/06/18 17:32:29;;;;;;;3.85;3.55;;;24.70;49.70;;;;;;7658642;22;81603;-72
2023/06/18 17:35:29;;;;;;;4.03;3.50;;;24.70;49.10;;;;;;7660511;22;80110;-67
2023/06/18 17:38:30;;;;;;;4.28;3.55;;;24.70;48.90;;;;;;7662723;22;80599;-66
2023/06/18 17:41:30;;;;;;;4.38;3.78;;;24.70;48.40;;;;;;7659966;22;80874;-67
2023/06/18 17:44:31;;;;;;;4.35;3.78;;;24.70;48.00;;;;;;7664344;22;80748;-65
2023/06/18 17:47:32;;;;;;;4.15;3.42;;;24.60;47.90;;;;;;7661433;22;81038;-65
2023/06/18 17:50:33;;;;;;;3.83;3.42;;;24.60;48.00;;;;;;7658100;22;80584;-72
2023/06/18 17:53:33;;;;;;;4.45;3.72;;;24.60;48.20;;;;;;7662155;22;81165;-71
2023/06/18 17:56:34;;;;;;;6.60;4.10;;;24.60;48.30;;;;;;7663788;22;81028;-72
2023/06/18 17:59:34;;;;;;;5.20;3.53;;;24.60;48.20;;;;;;7664705;22;80768;-75
2023/06/18 18:02:35;;;;;;;6.97;4.20;;;24.60;48.10;;;;;;7657332;22;80662;-70
2023/06/18 18:05:35;;;;;;;4.35;3.40;;;24.50;48.60;;;;;;7662179;22;80911;-70
2023/06/18 18:08:36;;;;;;;4.30;3.85;;;24.60;48.60;;;;;;7658899;22;81428;-72
2023/06/18 18:11:36;;;;;;;4.85;3.78;;;24.50;48.70;;;;;;7668662;22;80756;-74
2023/06/18 18:14:37;;;;;;;4.53;4.13;;;24.60;48.70;;;;;;7645538;22;83278;-73
2023/06/18 18:17:38;;;;;;;9.02;4.45;;;24.60;48.60;;;;;;7671657;22;80594;-75
2023/06/18 18:20:38;;;;;;;4.82;3.85;;;24.60;48.80;;;;;;7669367;22;80859;-71
2023/06/18 18:23:39;;;;;;;4.93;4.15;;;24.60;48.90;;;;;;7664358;22;81454;-75
2023/06/18 18:26:40;;;;;;;5.72;3.88;;;24.60;49.00;;;;;;7665720;22;80816;-70
2023/06/18 18:29:41;;;;;;;5.15;4.30;;;24.60;49.00;;;;;;7638276;22;80538;-71
2023/06/18 18:32:42;;;;;;;4.50;4.03;;;24.60;49.20;;;;;;7655773;22;80777;-76
2023/06/18 18:35:43;;;;;;;6.78;4.40;;;24.60;49.40;;;;;;7664428;22;80990;-74
2023/06/18 18:38:43;;;;;;;4.68;3.88;;;24.60;49.30;;;;;;7662485;22;81501;-73
2023/06/18 18:41:44;;;;;;;7.75;4.28;;;24.60;49.60;;;;;;7660357;22;80877;-71
2023/06/18 18:44:47;;;;;;;5.70;4.25;;;24.60;49.70;;;;;;7667748;22;81775;-72
2023/06/18 18:47:47;;;;;;;8.10;4.32;;;24.60;49.90;;;;;;7662942;22;80600;-78
2023/06/18 18:50:48;;;;;;;9.00;4.00;;;24.60;50.10;;;;;;7661946;22;80336;-76
2023/06/18 18:53:49;;;;;;;5.60;4.47;;;24.60;50.40;;;;;;7663376;22;81003;-70
2023/06/18 18:56:50;;;;;;;7.93;4.20;;;24.50;50.80;;;;;;7665302;22;80723;-68
2023/06/18 18:59:50;;;;;;;5.25;4.75;;;24.50;51.00;;;;;;7662562;22;81433;-71
2023/06/18 19:02:51;;;;;;;10.23;4.90;;;24.40;51.40;;;;;;7656709;22;80905;-65
2023/06/18 19:05:52;;;;;;;10.60;5.07;;;24.30;51.80;;;;;;7663770;22;81044;-70
2023/06/18 19:08:52;;;;;;;9.57;6.00;;;24.30;51.80;;;;;;7663218;22;80611;-68
2023/06/18 19:11:53;;;;;;;11.18;6.05;;;24.30;51.90;;;;;;7633064;22;81097;-70
2023/06/18 19:14:53;;;;;;;10.85;5.68;;;24.30;52.00;;;;;;7663627;22;81301;-68
2023/06/18 19:17:54;;;;;;;8.80;4.55;;;24.30;52.10;;;;;;7660639;22;81227;-69
2023/06/18 19:20:54;;;;;;;6.72;4.57;;;24.10;52.70;;;;;;7661630;22;80727;-67
2023/06/18 19:23:55;;;;;;;8.73;5.43;;;23.90;53.50;;;;;;7661486;22;80895;-67
2023/06/18 19:26:56;;;;;;;7.72;4.90;;;23.60;54.20;;;;;;7664690;22;80570;-66
2023/06/18 19:29:56;;;;;;;7.97;5.15;;;23.60;54.40;;;;;;7659765;22;81716;-67
2023/06/18 19:32:57;;;;;;;7.18;4.85;;;23.60;54.50;;;;;;7660049;22;81144;-68
2023/06/18 19:35:57;;;;;;;7.75;4.95;;;23.70;54.30;;;;;;7665232;22;80731;-67
2023/06/18 19:38:58;;;;;;;7.82;4.75;;;23.70;54.30;;;;;;7662645;22;81197;-65
2023/06/18 19:41:58;;;;;;;9.07;5.22;;;23.80;54.30;;;;;;7661245;22;81211;-68
2023/06/18 19:44:59;;;;;;;8.98;5.28;;;23.80;54.10;;;;;;7659522;22;80923;-67
2023/06/18 19:47:59;;;;;;;10.45;6.80;;;23.90;54.10;;;;;;7663062;22;80675;-68
2023/06/18 19:51:00;;;;;;;10.50;6.93;;;23.80;54.10;;;;;;7655024;22;80866;-67
2023/06/18 19:54:00;;;;;;;7.32;6.07;;;23.80;54.20;;;;;;7659077;22;80938;-67
2023/06/18 19:57:01;;;;;;;8.55;5.90;;;23.70;54.30;;;;;;7663796;22;81406;-71
2023/06/18 20:00:02;;;;;;;7.88;5.85;;;23.70;54.70;;;;;;7659222;22;80686;-66
2023/06/18 20:03:13;;;;;;;6.68;5.03;;;23.80;54.90;;;;;;7662555;22;81061;-63
2023/06/18 20:06:14;;;;;;;6.85;5.72;;;23.90;54.70;;;;;;7678722;22;85315;-63
2023/06/18 20:09:14;;;;;;;7.28;5.13;;;24.00;54.60;;;;;;7679270;22;80889;-64
2023/06/18 20:12:15;;;;;;;7.15;5.43;;;24.10;54.80;;;;;;7682691;22;80300;-63
2023/06/18 20:15:15;;;;;;;6.38;5.43;;;24.20;54.80;;;;;;7677364;22;81611;-71
2023/06/18 20:18:16;;;;;;;8.32;5.30;;;24.20;54.90;;;;;;7654834;22;81694;-72
2023/06/18 20:21:16;;;;;;;7.28;5.22;;;24.30;55.30;;;;;;7681989;22;80259;-70
2023/06/18 20:24:17;;;;;;;11.15;6.28;;;24.30;55.30;;;;;;7660767;22;81313;-68
2023/06/18 20:27:17;;;;;;;37.08;13.13;;;24.40;56.10;;;;;;7662494;22;81300;-65
2023/06/18 20:30:18;;;;;;;29.73;11.35;;;24.40;56.20;;;;;;7656628;22;84055;-69
2023/06/18 20:33:19;;;;;;;31.90;13.07;;;24.40;56.30;;;;;;7656629;22;84162;-68
2023/06/18 20:36:19;;;;;;;32.92;11.57;;;24.50;56.50;;;;;;7661493;22;83869;-68
2023/06/18 20:39:20;;;;;;;23.15;11.10;;;24.40;56.60;;;;;;7653901;22;84335;-70
2023/06/18 20:42:23;;;;;;;24.25;10.32;;;24.50;56.70;;;;;;7660198;22;83457;-69
2023/06/18 20:45:23;;;;;;;20.30;10.32;;;24.40;56.80;;;;;;7660555;22;84548;-70
2023/06/18 20:48:26;;;;;;;26.55;11.15;;;24.50;56.90;;;;;;7659236;22;83811;-67
2023/06/18 20:51:27;;;;;;;25.00;10.35;;;24.50;57.00;;;;;;7658900;22;83594;-69
2023/06/18 20:54:27;;;;;;;20.77;9.98;;;24.50;57.00;;;;;;7656128;22;83326;-69
2023/06/18 20:57:28;;;;;;;22.38;9.60;;;24.50;57.20;;;;;;7658214;22;83548;-68
2023/06/18 21:00:28;;;;;;;27.38;10.23;;;24.60;57.30;;;;;;7663655;22;83082;-68
2023/06/18 21:03:29;;;;;;;17.85;8.68;;;24.50;57.30;;;;;;7659083;22;83296;-66
2023/06/18 21:06:29;;;;;;;19.63;8.80;;;24.50;57.70;;;;;;7658665;22;83008;-70